Caswell Beach, North Carolina
Current Conditions -  °F | °C
As of 12:15 AM on Thursday 23 Oct 2014 (Local Time) from KSUT Reporting Station
Clear Clear  
Wind Chill: 51°   Ceiling: Unl
Heat Index: 51°   Visibility: 10mi
Dew Point: 44°   Wind: 6mph
Humidity: 76%   Direction: 310°NW
Pressure: 30.02"   Gusts: NA
Location:  33.9216°N, 78.1244°W
Report Text: KSUT 230415Z AUTO 31005KT 10SM CLR 11/07 A3002 RMK AO2 T01080068
Loading
Personal Weather Stations






























Interactive Weather Map
Tropical Storm Tracking
New forecast layout! Learn more

10-Day Weather Forecast

Advertisements
Track Severe Weather on mobile